KMCB/MCB METAR and TAF weather

Enter ICAO airport designator
Station Type Date Time Source
KMCB METAR 2022/01/29 01:53 UTC NOAA

KMCB 290153Z AUTO 00000KT 10SM CLR 03/M03 A3030 RMK AO2 SLP261 T00331028


Station Type Date Time Source
KMCB Decoded METAR 2022/01/29 01:53 UTC NOAA

MCCOMB/PIKE COUNTY AIRPORT, MS, United States (KMCB) 31-11N 90-28W 124M
Jan 28, 2022 - 08:53 PM EST / 2022.01.29 0153 UTC
Wind: Calm:0
Visibility: 10 mile(s):0
Sky conditions: clear
Temperature: 37.9 F (3.3 C)
Dew Point: 27.0 F (-2.8 C)
Relative Humidity: 64%
Pressure (altimeter): 30.3 in. Hg (1026 hPa)
ob: KMCB 290153Z AUTO 00000KT 10SM CLR 03/M03 A3030 RMK AO2 SLP261 T00331028
cycle: 2

Station Type Date Time Source
KMCB TAF 2022/01/28 18:39 UTC NOAA

TAF KMCB 281736Z 2818/2918 33018G23KT P6SM SKC
FM290000 34005KT P6SM SKC

Example: see airport list